Time;durP1;ratioP1;P1;durP2;ratioP2;P2;SDS_P1;SDS_P2;PMS_P1;PMS_P2;Temp;Humidity;BMP_temperature;BMP_pressure;BME280_temperature;BME280_humidity;BME280_pressure;Samples;Min_cycle;Max_cycle;Signal;HPM_P1;HPM_P2
2022/06/12 00:01:58;;;;;;;7.53;3.33;;;;;;;17.62;54.92;93527.28;2048090;70;20166;-71
2022/06/12 00:04:24;;;;;;;4.22;2.75;;;;;;;17.61;53.91;93531.50;2045982;70;20146;-72
2022/06/12 00:06:52;;;;;;;3.67;2.88;;;;;;;17.37;55.24;93528.22;2041157;70;20588;-71
2022/06/12 00:09:19;;;;;;;5.25;2.88;;;;;;;17.41;55.29;93522.69;2044708;70;20186;-71
2022/06/12 00:11:45;;;;;;;5.88;2.60;;;;;;;17.47;55.58;93528.72;2044767;70;20154;-71
2022/06/12 00:14:15;;;;;;;4.18;2.95;;;;;;;17.38;55.31;93521.88;2045042;70;20151;-72
2022/06/12 00:16:45;;;;;;;4.80;2.70;;;;;;;17.49;54.51;93526.69;2045591;70;20194;-72
2022/06/12 00:19:11;;;;;;;4.13;2.90;;;;;;;17.47;54.96;93520.16;2048253;70;20174;-72
2022/06/12 00:21:38;;;;;;;3.38;2.83;;;;;;;17.49;54.95;93523.09;2048833;70;20150;-72
2022/06/12 00:24:08;;;;;;;3.92;2.88;;;;;;;17.48;55.01;93522.38;2049139;70;20230;-72
2022/06/12 00:26:39;;;;;;;7.65;2.90;;;;;;;17.16;56.46;93535.00;2048765;70;20158;-72
2022/06/12 00:29:29;;;;;;;5.25;3.20;;;;;;;17.44;54.58;93527.88;2049163;70;20154;-72
2022/06/12 00:31:58;;;;;;;3.33;2.65;;;;;;;17.22;56.78;93532.47;2048429;70;20253;-72
2022/06/12 00:34:29;;;;;;;3.80;2.85;;;;;;;17.18;55.79;93530.19;2045676;70;20178;-71
2022/06/12 00:36:56;;;;;;;4.38;2.70;;;;;;;17.14;55.90;93532.09;2045958;70;20147;-72
2022/06/12 00:39:23;;;;;;;4.63;2.80;;;;;;;17.09;55.00;93531.13;2045675;70;20599;-70
2022/06/12 00:41:51;;;;;;;6.28;3.00;;;;;;;16.98;54.85;93532.00;2045647;70;20473;-70
2022/06/12 00:44:20;;;;;;;3.58;2.95;;;;;;;16.98;55.68;93537.69;2045633;70;20151;-70
2022/06/12 00:46:57;;;;;;;4.03;2.95;;;;;;;17.10;54.56;93531.88;2046291;70;20157;-70
2022/06/12 00:49:32;;;;;;;3.85;2.85;;;;;;;17.15;55.03;93534.28;2048850;70;20151;-70
2022/06/12 00:52:15;;;;;;;3.83;2.78;;;;;;;17.08;55.99;93535.34;2048966;70;20143;-70
2022/06/12 00:54:43;;;;;;;;;;;;;;;17.01;54.88;93537.16;2049213;70;20205;-70
2022/06/12 00:57:09;;;;;;;5.30;2.80;;;;;;;17.01;55.93;93534.31;2048493;70;20146;-70
2022/06/12 00:59:37;;;;;;;4.28;2.90;;;;;;;16.86;56.33;93529.28;2048645;70;20167;-70
2022/06/12 01:02:05;;;;;;;5.45;2.75;;;;;;;16.89;56.61;93530.09;2048605;70;20151;-70
2022/06/12 01:07:23;;;;;;;3.38;2.55;;;;;;;17.02;54.15;93532.19;2048271;70;20151;-70
2022/06/12 01:09:53;;;;;;;3.70;2.60;;;;;;;16.81;56.22;93538.22;2048744;70;20208;-70
2022/06/12 01:12:24;;;;;;;3.60;2.85;;;;;;;16.92;55.55;93548.75;2048830;69;20135;-73
2022/06/12 01:14:57;;;;;;;8.93;3.05;;;;;;;16.76;56.79;93546.53;2048729;70;20149;-70
2022/06/12 01:17:26;;;;;;;3.70;2.50;;;;;;;16.89;55.17;93541.47;2047035;70;20596;-71
2022/06/12 01:19:56;;;;;;;3.55;2.70;;;;;;;16.82;55.88;93548.25;2048859;70;20231;-71
2022/06/12 01:22:53;;;;;;;3.78;2.95;;;;;;;16.83;56.06;93541.19;2048895;70;20239;-71
2022/06/12 01:25:48;;;;;;;4.80;2.70;;;;;;;16.91;55.32;93545.19;2048821;70;20188;-71
2022/06/12 01:28:45;;;;;;;2.90;2.50;;;;;;;16.89;55.29;93538.63;2048608;70;20166;-70
2022/06/12 01:31:42;;;;;;;3.67;3.15;;;;;;;16.66;55.86;93543.16;2048385;70;20162;-70
2022/06/12 01:34:26;;;;;;;4.10;3.13;;;;;;;16.42;56.52;93541.91;2048932;70;20147;-71
2022/06/12 01:37:04;;;;;;;3.67;3.00;;;;;;;16.53;56.67;93541.03;2047405;70;20191;-71
2022/06/12 01:39:55;;;;;;;4.15;3.22;;;;;;;16.48;57.88;93536.53;2045378;70;20185;-71
2022/06/12 01:42:34;;;;;;;5.45;3.40;;;;;;;16.37;58.20;93543.06;2045508;70;20191;-71
2022/06/12 01:45:03;;;;;;;4.60;3.10;;;;;;;16.46;57.32;93534.31;2045838;70;20170;-72
2022/06/12 01:48:18;;;;;;;4.70;2.80;;;;;;;16.50;56.02;93534.53;2047139;70;20242;-71
2022/06/12 01:50:58;;;;;;;3.55;2.80;;;;;;;16.58;55.64;93513.56;2044671;70;20147;-72
2022/06/12 01:53:38;;;;;;;5.03;2.90;;;;;;;16.58;56.23;93517.16;2048671;70;20196;-71
2022/06/12 01:56:06;;;;;;;5.30;3.10;;;;;;;16.51;57.00;93516.09;2046486;70;20178;-71
2022/06/12 01:58:36;;;;;;;3.50;2.85;;;;;;;16.65;55.58;93513.25;2045458;70;20187;-71
2022/06/12 02:01:24;;;;;;;3.75;2.70;;;;;;;16.46;56.85;93516.53;2045259;70;20154;-71
2022/06/12 02:04:01;;;;;;;4.25;2.88;;;;;;;16.58;55.70;93522.09;2045457;70;20642;-71
2022/06/12 02:06:41;;;;;;;5.45;2.95;;;;;;;16.31;56.02;93525.66;2045533;70;20158;-71
2022/06/12 02:09:21;;;;;;;6.53;2.90;;;;;;;16.48;55.36;93528.00;2048630;70;20146;-71
2022/06/12 02:14:58;;;;;;;4.00;2.92;;;;;;;16.33;56.82;93529.38;2047527;70;20162;-71
2022/06/12 02:17:32;;;;;;;4.10;3.28;;;;;;;16.47;55.38;93529.38;2042244;70;20165;-71
2022/06/12 02:20:00;;;;;;;5.05;2.90;;;;;;;16.31;56.19;93532.09;2045769;70;20154;-70
2022/06/12 02:22:30;;;;;;;5.22;3.15;;;;;;;16.10;56.99;93527.44;2045602;70;20184;-71
2022/06/12 02:25:01;;;;;;;6.78;2.72;;;;;;;16.24;56.10;93530.31;2045222;70;20338;-71
2022/06/12 02:27:34;;;;;;;3.28;2.88;;;;;;;16.19;56.50;93535.03;2048909;70;20153;-71
2022/06/12 02:30:07;;;;;;;2.75;2.55;;;;;;;16.22;57.11;93524.53;2048752;70;20142;-70
2022/06/12 02:32:56;;;;;;;;;;;;;;;16.15;57.62;93531.97;2048695;70;20531;-71
2022/06/12 02:35:25;;;;;;;4.40;3.05;;;;;;;16.39;55.81;93531.78;2045090;70;20050;-71
2022/06/12 02:37:58;;;;;;;5.15;3.00;;;;;;;16.18;56.96;93533.56;2048644;70;20181;-71
2022/06/12 02:40:32;;;;;;;5.95;3.00;;;;;;;16.14;56.22;93529.78;2048535;70;20531;-71
2022/06/12 02:43:04;;;;;;;3.78;2.90;;;;;;;16.11;56.62;93528.91;2048655;70;20592;-71
2022/06/12 02:45:44;;;;;;;3.42;2.53;;;;;;;16.00;58.04;93532.59;2046539;70;20591;-71
2022/06/12 02:48:10;;;;;;;6.70;2.72;;;;;;;16.11;56.54;93542.38;2045556;70;20151;-71
2022/06/12 02:50:44;;;;;;;4.15;2.50;;;;;;;16.06;58.42;93538.59;2045373;70;20154;-71
2022/06/12 02:53:22;;;;;;;5.20;2.58;;;;;;;16.08;57.01;93533.03;2045306;70;20146;-73
2022/06/12 02:56:12;;;;;;;3.85;2.80;;;;;;;16.05;57.18;93536.38;2047034;70;20142;-72
2022/06/12 02:58:52;;;;;;;3.67;3.20;;;;;;;16.07;56.53;93533.63;2048573;70;20154;-71
2022/06/12 03:01:24;;;;;;;5.63;3.00;;;;;;;15.72;56.83;93541.03;2048552;70;20328;-71
2022/06/12 03:04:04;;;;;;;5.80;2.90;;;;;;;15.76;57.95;93540.53;2048689;70;20235;-71
2022/06/12 03:06:30;;;;;;;5.20;3.22;;;;;;;15.72;58.64;93545.97;2048321;70;20508;-71
2022/06/12 03:08:58;;;;;;;3.42;3.05;;;;;;;15.77;57.99;93544.09;2048452;70;20147;-71
2022/06/12 03:11:25;;;;;;;4.70;2.95;;;;;;;15.71;57.67;93541.63;2048568;70;20146;-71
2022/06/12 03:13:54;;;;;;;4.18;2.80;;;;;;;15.55;58.30;93544.28;2048605;70;20177;-71
2022/06/12 03:16:27;;;;;;;5.47;2.92;;;;;;;15.84;56.68;93555.13;2045640;70;20216;-71
2022/06/12 03:18:56;;;;;;;4.00;2.92;;;;;;;15.76;57.09;93549.03;2045361;70;20147;-71
2022/06/12 03:21:57;;;;;;;5.60;3.45;;;;;;;15.68;56.63;93551.41;2045425;70;20154;-70
2022/06/12 03:24:36;;;;;;;5.35;3.15;;;;;;;15.60;57.70;93553.78;2045414;70;20143;-71
2022/06/12 03:27:29;;;;;;;3.22;2.80;;;;;;;15.70;57.87;93551.53;2048511;70;20555;-71
2022/06/12 03:30:16;;;;;;;4.15;2.80;;;;;;;15.73;57.81;93551.00;2048611;70;20589;-71
2022/06/12 03:33:04;;;;;;;4.15;2.70;;;;;;;15.60;57.81;93550.94;2048793;70;20167;-71
2022/06/12 03:35:53;;;;;;;5.57;2.90;;;;;;;15.71;57.35;93550.91;2047334;70;20642;-71
2022/06/12 03:39:00;;;;;;;5.32;3.10;;;;;;;15.67;57.41;93549.94;2045378;70;20607;-71
2022/06/12 03:41:35;;;;;;;3.92;3.22;;;;;;;15.36;59.05;93559.56;2045237;70;20611;-71
2022/06/12 03:44:16;;;;;;;3.58;2.63;;;;;;;15.64;57.57;93565.38;2045343;70;20268;-71
2022/06/12 03:47:06;;;;;;;3.88;2.72;;;;;;;15.56;58.72;93562.78;2041583;70;20147;-73
2022/06/12 03:49:42;;;;;;;5.03;2.80;;;;;;;15.55;58.97;93569.09;2045389;70;20222;-71
2022/06/12 03:52:15;;;;;;;3.45;2.55;;;;;;;15.52;59.18;93568.25;2048062;70;20216;-71
2022/06/12 03:55:13;;;;;;;3.88;3.22;;;;;;;15.65;57.68;93566.84;2048552;70;20578;-71
2022/06/12 03:57:57;;;;;;;5.85;2.97;;;;;;;15.50;58.43;93577.38;2045220;70;20158;-71
2022/06/12 04:00:29;;;;;;;4.82;3.17;;;;;;;15.43;58.97;93575.56;2045238;70;20151;-71
2022/06/12 04:02:57;;;;;;;5.25;3.15;;;;;;;15.44;58.73;93573.44;2045313;70;20171;-70
2022/06/12 04:05:34;;;;;;;3.65;2.80;;;;;;;15.44;58.76;93577.06;2045904;70;20215;-71
2022/06/12 04:08:02;;;;;;;5.25;2.92;;;;;;;15.44;59.61;93577.06;2048618;70;20178;-73
2022/06/12 04:10:32;;;;;;;5.05;3.05;;;;;;;15.39;59.64;93574.59;2045522;70;20146;-71
2022/06/12 04:12:58;;;;;;;7.68;2.83;;;;;;;15.41;59.27;93580.38;2048577;70;20228;-70
2022/06/12 04:15:33;;;;;;;4.53;2.70;;;;;;;15.43;60.14;93572.72;2048180;70;20157;-70
2022/06/12 04:18:00;;;;;;;5.72;2.90;;;;;;;15.49;58.70;93566.66;2048360;70;20154;-70
2022/06/12 04:20:42;;;;;;;4.47;2.78;;;;;;;15.52;57.64;93571.81;2048390;70;20185;-71
2022/06/12 04:23:39;;;;;;;3.08;2.78;;;;;;;15.39;58.47;93575.31;2048381;70;20126;-71
2022/06/12 04:26:20;;;;;;;4.30;3.20;;;;;;;15.43;58.61;93577.66;2046442;70;20163;-71
2022/06/12 04:28:53;;;;;;;4.28;3.20;;;;;;;15.48;57.88;93576.53;2045176;70;20631;-71
2022/06/12 04:31:20;;;;;;;4.45;2.80;;;;;;;15.48;57.40;93576.53;2045199;70;20147;-71
2022/06/12 04:34:09;;;;;;;3.55;2.80;;;;;;;15.58;56.80;93573.50;2045122;70;20157;-71
2022/06/12 04:36:36;;;;;;;3.22;2.60;;;;;;;15.52;58.09;93576.75;2044962;70;20154;-71
2022/06/12 04:39:03;;;;;;;2.55;2.35;;;;;;;15.49;57.84;93564.56;2045077;70;20743;-71
2022/06/12 04:41:31;;;;;;;4.88;2.70;;;;;;;15.50;58.02;93559.63;2045243;70;20166;-71
2022/06/12 04:43:57;;;;;;;6.10;2.75;;;;;;;15.51;57.27;93573.19;2045297;70;20620;-71
2022/06/12 04:46:26;;;;;;;4.82;2.75;;;;;;;15.07;58.96;93576.28;2046780;70;20616;-71
2022/06/12 04:48:56;;;;;;;4.95;2.95;;;;;;;15.14;58.46;93561.13;2048491;70;20242;-71
2022/06/12 04:51:21;;;;;;;3.28;2.80;;;;;;;15.44;57.30;93570.63;2048624;70;20241;-71
2022/06/12 04:53:48;;;;;;;6.53;2.90;;;;;;;15.57;56.57;93560.69;2048480;70;20688;-71
2022/06/12 04:56:16;;;;;;;6.15;2.60;;;;;;;15.53;57.02;93569.72;2048271;70;20216;-72
2022/06/12 04:58:42;;;;;;;3.63;2.75;;;;;;;15.64;57.18;93568.22;2048583;70;20501;-71
2022/06/12 05:01:09;;;;;;;4.28;2.80;;;;;;;15.76;56.22;93557.56;2048283;70;20157;-71
2022/06/12 05:03:35;;;;;;;3.00;2.70;;;;;;;15.63;57.73;93567.47;2048363;70;20147;-70
2022/06/12 05:06:01;;;;;;;3.90;2.42;;;;;;;15.69;56.21;93559.31;2048214;70;20274;-71
2022/06/12 05:08:27;;;;;;;2.75;2.50;;;;;;;15.53;57.23;93558.34;2048913;70;20162;-72
2022/06/12 05:10:53;;;;;;;4.00;2.65;;;;;;;15.64;55.92;93554.03;2049226;70;20155;-71
2022/06/12 05:13:19;;;;;;;3.92;2.65;;;;;;;15.52;57.92;93556.88;2048989;70;20162;-71
2022/06/12 05:15:46;;;;;;;3.03;2.60;;;;;;;15.64;56.02;93554.75;2048243;70;20175;-72
2022/06/12 05:18:14;;;;;;;3.08;2.30;;;;;;;15.82;54.76;93557.16;2048820;70;20166;-71
2022/06/12 05:20:40;;;;;;;4.57;2.70;;;;;;;15.75;56.08;93561.72;2048882;70;20151;-71
2022/06/12 05:23:06;;;;;;;3.40;2.70;;;;;;;15.67;57.57;93552.78;2048793;70;20682;-72
2022/06/12 05:25:33;;;;;;;3.35;2.45;;;;;;;15.73;56.21;93555.97;2048277;70;20265;-71
2022/06/12 05:28:03;;;;;;;5.55;2.88;;;;;;;15.75;56.51;93550.38;2046380;70;20495;-72
2022/06/12 05:30:32;;;;;;;3.45;2.60;;;;;;;15.78;55.38;93549.13;2045735;70;20151;-71
2022/06/12 05:32:59;;;;;;;3.88;2.72;;;;;;;15.77;56.20;93544.81;2045591;70;20169;-71
2022/06/12 05:35:26;;;;;;;3.72;2.55;;;;;;;15.44;57.23;93547.91;2045889;70;20185;-71
2022/06/12 05:37:52;;;;;;;3.83;2.78;;;;;;;15.72;56.28;93554.50;2045314;70;20166;-71
2022/06/12 05:40:22;;;;;;;3.63;2.90;;;;;;;15.74;56.61;93543.22;2045462;70;20139;-71
2022/06/12 05:42:48;;;;;;;5.35;2.47;;;;;;;15.77;57.34;93544.81;2045511;70;20204;-71
2022/06/12 05:45:19;;;;;;;7.18;3.00;;;;;;;15.57;57.73;93538.00;2045504;70;20158;-71
2022/06/12 05:47:53;;;;;;;4.10;2.72;;;;;;;15.66;57.88;93542.78;2045618;70;20139;-72
2022/06/12 05:50:21;;;;;;;4.40;2.78;;;;;;;15.61;59.57;93541.78;2045719;70;20615;-71
2022/06/12 05:52:47;;;;;;;5.70;2.97;;;;;;;15.62;59.35;93539.69;2047103;70;20227;-71
2022/06/12 05:55:12;;;;;;;4.20;2.72;;;;;;;15.62;58.49;93536.84;2045793;70;20139;-71
2022/06/12 05:57:39;;;;;;;8.88;2.88;;;;;;;15.55;59.38;93543.56;2048598;70;20597;-71
2022/06/12 06:00:09;;;;;;;7.72;2.53;;;;;;;15.52;59.46;93537.75;2049264;69;20146;-71
2022/06/12 06:02:38;;;;;;;4.57;2.80;;;;;;;15.69;58.59;93533.75;2047990;70;20209;-71
2022/06/12 06:05:06;;;;;;;4.25;2.60;;;;;;;15.70;59.27;93535.22;2048806;70;20626;-72
2022/06/12 06:07:33;;;;;;;2.95;2.65;;;;;;;15.72;59.01;93538.19;2048439;70;20229;-71
2022/06/12 06:09:59;;;;;;;4.57;2.50;;;;;;;15.72;59.93;93532.50;2048712;70;20531;-71
2022/06/12 06:12:25;;;;;;;3.50;2.33;;;;;;;15.74;59.10;93534.72;2045603;70;20190;-71
2022/06/12 06:14:53;;;;;;;2.78;2.17;;;;;;;15.86;57.78;93523.31;2047722;70;20730;-70
2022/06/12 06:17:19;;;;;;;3.72;2.50;;;;;;;15.90;59.21;93524.25;2048469;70;20620;-70
2022/06/12 06:19:45;;;;;;;3.78;2.50;;;;;;;15.92;59.23;93523.63;2048489;70;20148;-72
2022/06/12 06:22:17;;;;;;;3.47;2.53;;;;;;;16.01;58.97;93517.75;2045073;69;20174;-72
2022/06/12 06:24:45;;;;;;;5.15;2.35;;;;;;;16.09;58.23;93525.25;2048750;70;20149;-72
2022/06/12 06:27:12;;;;;;;3.38;2.22;;;;;;;16.02;59.78;93524.91;2045693;70;20157;-73
2022/06/12 06:29:38;;;;;;;3.67;2.60;;;;;;;16.10;58.99;93518.19;2045450;70;20618;-73
2022/06/12 06:32:05;;;;;;;3.72;2.38;;;;;;;16.28;57.27;93522.00;2048062;70;20147;-73
2022/06/12 06:34:34;;;;;;;3.08;2.67;;;;;;;16.30;59.07;93524.19;2045459;70;20141;-72
2022/06/12 06:37:00;;;;;;;2.67;2.30;;;;;;;16.45;56.46;93518.66;2048838;70;20178;-71
2022/06/12 06:39:26;;;;;;;4.15;2.42;;;;;;;16.55;54.73;93521.28;2048756;70;20688;-72
2022/06/12 06:41:54;;;;;;;3.47;2.50;;;;;;;16.58;57.43;93524.94;2046560;70;20175;-73
2022/06/12 06:47:04;;;;;;;3.08;2.22;;;;;;;16.75;56.70;93519.47;2045619;70;20574;-72
2022/06/12 06:49:30;;;;;;;3.30;2.40;;;;;;;16.82;57.64;93512.00;2045480;70;20143;-73
2022/06/12 06:51:57;;;;;;;2.92;2.60;;;;;;;16.87;57.07;93513.69;2046621;70;20220;-72
2022/06/12 06:54:23;;;;;;;3.40;2.45;;;;;;;16.93;56.21;93514.00;2042322;70;20161;-72
2022/06/12 06:56:49;;;;;;;2.78;2.55;;;;;;;17.00;57.34;93518.63;2045973;69;20151;-73
2022/06/12 06:59:15;;;;;;;2.55;2.22;;;;;;;17.06;57.57;93515.34;2045419;70;20170;-73
2022/06/12 07:01:41;;;;;;;3.53;2.42;;;;;;;17.16;56.87;93507.28;2045285;70;20151;-72
2022/06/12 07:04:07;;;;;;;2.88;2.28;;;;;;;17.19;56.65;93508.16;2045611;70;20471;-72
2022/06/12 07:06:33;;;;;;;3.03;2.72;;;;;;;17.26;56.84;93504.22;2046558;70;20585;-72
2022/06/12 07:08:59;;;;;;;2.85;2.35;;;;;;;17.33;57.51;93497.44;2048718;70;20153;-72
2022/06/12 07:11:25;;;;;;;3.45;2.70;;;;;;;17.40;58.12;93501.31;2048087;70;20150;-73
2022/06/12 07:13:53;;;;;;;4.28;2.67;;;;;;;17.46;57.21;93495.94;2048825;70;20185;-72
2022/06/12 07:16:20;;;;;;;2.50;2.25;;;;;;;17.56;57.13;93490.72;2048272;70;20186;-72
2022/06/12 07:18:46;;;;;;;2.55;2.15;;;;;;;17.63;56.71;93495.31;2048310;70;20146;-72
2022/06/12 07:21:12;;;;;;;2.63;2.42;;;;;;;17.71;57.29;93492.84;2048207;70;20174;-73
2022/06/12 07:23:40;;;;;;;4.53;2.53;;;;;;;17.74;57.53;93488.75;2048849;70;20237;-72
2022/06/12 07:26:11;;;;;;;6.53;2.72;;;;;;;17.82;57.68;93481.94;2048636;70;20619;-73
2022/06/12 07:28:37;;;;;;;8.80;2.85;;;;;;;17.93;57.96;93481.06;2045282;70;20139;-73
2022/06/12 07:31:06;;;;;;;5.07;2.90;;;;;;;18.04;58.78;93471.59;2048713;70;20269;-73
2022/06/12 07:33:31;;;;;;;3.60;2.72;;;;;;;18.11;59.25;93470.50;2048527;70;20178;-72
2022/06/12 07:35:58;;;;;;;6.15;2.83;;;;;;;18.14;58.78;93465.59;2048832;70;20165;-74
2022/06/12 07:38:26;;;;;;;7.65;2.55;;;;;;;18.28;58.99;93463.41;2048802;70;20149;-73
2022/06/12 07:40:57;;;;;;;3.78;2.50;;;;;;;18.39;58.09;93471.03;2048650;70;20147;-73
2022/06/12 07:43:24;;;;;;;4.40;2.47;;;;;;;18.46;57.98;93469.16;2046809;70;20182;-72
2022/06/12 07:45:51;;;;;;;4.07;2.38;;;;;;;18.54;58.47;93458.84;2048731;70;20201;-72
2022/06/12 07:48:19;;;;;;;3.80;2.70;;;;;;;18.65;58.00;93462.16;2048820;70;20178;-74
2022/06/12 07:50:47;;;;;;;3.25;2.50;;;;;;;18.75;57.93;93463.34;2047884;70;20151;-73
2022/06/12 07:53:16;;;;;;;3.92;2.60;;;;;;;18.85;57.51;93460.19;2048680;70;20158;-73
2022/06/12 07:55:42;;;;;;;3.33;2.60;;;;;;;19.02;51.97;93470.91;2048643;70;20201;-72
2022/06/12 07:58:09;;;;;;;4.35;2.58;;;;;;;18.99;53.14;93457.19;2048480;70;20158;-72
2022/06/12 08:00:36;;;;;;;3.75;2.75;;;;;;;19.17;55.14;93460.78;2043588;70;20151;-73
2022/06/12 08:03:05;;;;;;;3.85;2.50;;;;;;;19.17;53.06;93454.34;2045491;70;20316;-73
2022/06/12 08:05:33;;;;;;;2.72;2.53;;;;;;;19.30;52.51;93447.75;2045495;70;20146;-73
2022/06/12 08:07:59;;;;;;;3.47;2.80;;;;;;;19.79;50.04;93450.44;2045398;70;20536;-73
2022/06/12 08:10:25;;;;;;;6.55;2.75;;;;;;;19.75;50.62;93449.56;2046450;70;20189;-74
2022/06/12 08:12:51;;;;;;;3.55;2.88;;;;;;;19.76;51.38;93437.47;2048732;70;20155;-73
2022/06/12 08:15:26;;;;;;;2.60;2.40;;;;;;;19.83;50.81;93435.56;2048399;70;20570;-73
2022/06/12 08:17:53;;;;;;;4.22;2.53;;;;;;;20.24;51.15;93437.06;2044921;70;20170;-73
2022/06/12 08:20:25;;;;;;;3.45;2.38;;;;;;;20.47;48.99;93425.06;2048308;70;20154;-74
2022/06/12 08:23:29;;;;;;;3.78;2.47;;;;;;;21.01;46.87;93431.22;2048810;70;20230;-73
2022/06/12 08:26:06;;;;;;;4.05;2.40;;;;;;;22.35;44.48;93419.63;2048419;70;20146;-73
2022/06/12 08:28:35;;;;;;;3.70;2.28;;;;;;;22.25;44.48;93417.22;2048556;70;20631;-74
2022/06/12 08:31:04;;;;;;;2.22;2.00;;;;;;;22.41;42.40;93407.63;2047991;70;20139;-74
2022/06/12 08:33:30;;;;;;;2.50;2.30;;;;;;;22.90;40.05;93409.66;2048504;70;20150;-73
2022/06/12 08:35:56;;;;;;;2.30;2.10;;;;;;;23.11;42.16;93402.31;2048515;70;20158;-73
2022/06/12 08:38:22;;;;;;;3.80;2.08;;;;;;;23.18;42.23;93408.94;2048249;70;20255;-73
2022/06/12 08:41:08;;;;;;;2.40;2.20;;;;;;;23.90;40.16;93397.00;2046680;70;20247;-73
2022/06/12 08:43:33;;;;;;;2.85;2.28;;;;;;;24.11;40.72;93403.94;2046688;70;20631;-72
2022/06/12 08:46:08;;;;;;;2.00;1.80;;;;;;;24.23;41.27;93399.16;2047153;70;20162;-73
2022/06/12 08:48:47;;;;;;;2.60;1.90;;;;;;;24.61;37.31;93389.88;2048924;70;20170;-75
2022/06/12 08:51:25;;;;;;;2.05;1.83;;;;;;;24.66;37.99;93390.69;2048846;70;20154;-72
2022/06/12 08:54:10;;;;;;;2.47;2.15;;;;;;;25.16;39.03;93390.19;2049176;70;20142;-74
2022/06/12 08:56:44;;;;;;;2.75;2.00;;;;;;;25.53;39.34;93385.75;2045499;70;20147;-72
2022/06/12 08:59:19;;;;;;;3.08;2.10;;;;;;;25.45;37.46;93382.72;2045816;70;20155;-73
2022/06/12 09:01:48;;;;;;;4.50;1.88;;;;;;;26.18;38.34;93380.94;2047038;70;20158;-73
2022/06/12 09:04:17;;;;;;;4.43;2.13;;;;;;;25.91;38.46;93365.41;2049131;70;20154;-74
2022/06/12 09:07:02;;;;;;;3.08;2.10;;;;;;;26.00;35.07;93366.25;2045864;70;20619;-75
2022/06/12 09:09:54;;;;;;;3.67;2.03;;;;;;;26.63;34.57;93369.97;2048249;70;20353;-73
2022/06/12 09:12:35;;;;;;;4.22;2.05;;;;;;;26.96;35.83;93365.25;2046244;70;20548;-76
2022/06/12 09:15:04;;;;;;;3.20;2.00;;;;;;;27.25;34.27;93363.38;2046880;70;20516;-74
2022/06/12 09:18:04;;;;;;;4.20;2.20;;;;;;;26.94;35.37;93364.50;2046109;70;20139;-73
2022/06/12 09:20:35;;;;;;;5.00;1.92;;;;;;;27.47;35.07;93359.94;2045574;70;20151;-74
2022/06/12 09:23:13;;;;;;;2.33;1.90;;;;;;;27.29;33.41;93356.91;2045693;70;20209;-74
2022/06/12 09:25:42;;;;;;;1.70;1.60;;;;;;;27.79;30.91;93359.47;2045719;70;20709;-74
2022/06/12 09:28:26;;;;;;;1.88;1.58;;;;;;;28.22;32.25;93353.19;2045350;70;20171;-74
2022/06/12 09:31:00;;;;;;;2.20;1.40;;;;;;;28.03;30.82;93352.38;2041323;70;20244;-75
2022/06/12 09:33:59;;;;;;;1.75;1.50;;;;;;;27.52;28.81;93352.75;2045787;70;20161;-75
2022/06/12 09:36:40;;;;;;;2.05;1.63;;;;;;;28.03;29.39;93347.31;2043637;69;20159;-75
2022/06/12 09:39:38;;;;;;;3.78;1.30;;;;;;;28.60;29.17;93344.00;2045890;70;20228;-75
2022/06/12 09:42:43;;;;;;;2.80;1.60;;;;;;;28.50;29.13;93341.78;2046879;70;20512;-75
2022/06/12 09:45:26;;;;;;;3.47;1.88;;;;;;;28.71;30.53;93339.66;2047372;70;20147;-75
2022/06/12 09:48:14;;;;;;;1.92;1.65;;;;;;;28.73;31.34;93331.00;2046656;70;20167;-74
2022/06/12 09:50:46;;;;;;;2.30;1.92;;;;;;;28.55;30.69;93328.06;2044994;70;20527;-76
2022/06/12 09:53:20;;;;;;;1.70;1.60;;;;;;;29.24;31.86;93318.78;2046952;70;20230;-77
2022/06/12 09:55:57;;;;;;;2.88;1.70;;;;;;;29.48;32.13;93318.78;2045490;70;20183;-78
2022/06/12 09:58:40;;;;;;;1.95;1.70;;;;;;;30.18;32.06;93313.59;2045482;70;20249;-76
2022/06/12 10:01:16;;;;;;;1.88;1.73;;;;;;;29.73;29.33;93304.97;2045724;70;20744;-76
2022/06/12 10:03:47;;;;;;;2.53;1.42;;;;;;;29.61;29.24;93305.72;2046255;70;20643;-75
2022/06/12 10:06:24;;;;;;;3.05;1.60;;;;;;;29.96;29.45;93299.84;2048500;70;20170;-75
2022/06/12 10:09:08;;;;;;;1.85;1.60;;;;;;;30.59;27.88;93290.91;2048723;70;20147;-73
2022/06/12 10:11:49;;;;;;;3.03;1.80;;;;;;;29.93;29.88;93289.00;2048268;70;20242;-76
2022/06/12 10:14:33;;;;;;;2.53;1.60;;;;;;;30.77;29.11;93286.50;2048612;70;20215;-76
2022/06/12 10:16:59;;;;;;;1.63;1.50;;;;;;;31.03;26.13;93289.22;2046058;70;20612;-75
2022/06/12 10:19:38;;;;;;;3.53;1.52;;;;;;;31.34;27.98;93281.03;2046278;70;20166;-75
2022/06/12 10:22:15;;;;;;;3.70;1.50;;;;;;;31.69;25.88;93280.69;2045010;70;20236;-73
2022/06/12 10:24:41;;;;;;;1.20;1.10;;;;;;;31.93;27.30;93273.94;2045379;70;20529;-76
2022/06/12 10:27:10;;;;;;;2.00;1.27;;;;;;;32.22;26.87;93262.69;2045467;70;20576;-76
2022/06/12 10:29:47;;;;;;;2.30;1.13;;;;;;;32.34;24.87;93262.53;2045439;70;20230;-76
2022/06/12 10:32:17;;;;;;;1.35;1.08;;;;;;;33.48;26.08;93263.13;2045700;70;20179;-76
2022/06/12 10:34:43;;;;;;;2.45;1.20;;;;;;;32.92;22.10;93253.78;2045426;70;20557;-75
2022/06/12 10:37:12;;;;;;;3.45;1.40;;;;;;;32.48;24.11;93243.44;2045472;70;20147;-75
2022/06/12 10:39:37;;;;;;;1.13;1.02;;;;;;;32.93;24.39;93248.69;2045120;70;20202;-75
2022/06/12 10:42:08;;;;;;;1.33;1.00;;;;;;;34.32;21.59;93247.03;2045737;70;20162;-74
2022/06/12 10:44:34;;;;;;;1.42;1.00;;;;;;;34.52;22.03;93251.75;2045711;70;20155;-75
2022/06/12 10:47:15;;;;;;;3.60;1.10;;;;;;;34.52;22.47;93243.69;2045417;70;20139;-77
2022/06/12 10:49:41;;;;;;;2.10;0.90;;;;;;;36.02;20.82;93240.88;2046389;70;20185;-74
2022/06/12 10:52:14;;;;;;;2.65;0.80;;;;;;;35.73;21.03;93229.19;2047998;70;20562;-75
2022/06/12 10:54:40;;;;;;;1.02;0.80;;;;;;;37.09;19.09;93236.34;2046247;69;20162;-75
2022/06/12 10:57:18;;;;;;;0.80;0.80;;;;;;;37.44;17.94;93229.38;2047272;70;20135;-75
2022/06/12 11:00:01;;;;;;;0.95;0.77;;;;;;;37.91;16.67;93230.75;2045208;70;20158;-77
2022/06/12 11:02:42;;;;;;;1.40;0.80;;;;;;;41.68;16.42;93241.59;2045354;70;20150;-76
2022/06/12 11:05:19;;;;;;;1.35;0.70;;;;;;;40.22;14.92;93231.38;2048432;70;20335;-77
2022/06/12 11:07:56;;;;;;;1.13;0.60;;;;;;;41.96;13.05;93229.88;2046166;70;20158;-76
2022/06/12 11:10:22;;;;;;;0.80;0.70;;;;;;;43.14;13.15;93224.38;2045586;70;20154;-76
2022/06/12 11:13:27;;;;;;;0.60;0.55;;;;;;;43.46;12.26;93221.13;2047328;70;20157;-74
2022/06/12 11:16:30;;;;;;;0.85;0.55;;;;;;;46.61;12.95;93235.59;2048724;70;20177;-76
2022/06/12 11:19:21;;;;;;;1.20;0.55;;;;;;;47.49;12.09;93220.44;2043253;70;20204;-76
2022/06/12 11:21:49;;;;;;;1.08;0.50;;;;;;;47.23;10.84;93216.38;2045313;70;20514;-77
2022/06/12 11:24:38;;;;;;;0.60;0.60;;;;;;;49.55;10.21;93219.56;2047108;70;20186;-77
2022/06/12 11:27:04;;;;;;;2.47;0.60;;;;;;;49.87;10.52;93217.78;2045639;70;20331;-77
2022/06/12 11:29:53;;;;;;;1.00;0.70;;;;;;;51.10;9.48;93221.50;2045224;70;20143;-77
2022/06/12 11:32:46;;;;;;;1.17;0.40;;;;;;;51.06;9.97;93206.16;2045301;70;20153;-75
2022/06/12 11:35:22;;;;;;;0.50;0.40;;;;;;;49.73;9.57;93207.69;2048757;70;20212;-77
2022/06/12 11:38:12;;;;;;;0.45;0.40;;;;;;;48.79;9.39;93194.25;2047894;70;20597;-75
2022/06/12 11:40:51;;;;;;;0.60;0.50;;;;;;;51.47;7.40;93202.56;2045487;70;20158;-77
2022/06/12 11:43:35;;;;;;;0.73;0.50;;;;;;;53.07;8.46;93202.00;2045752;69;20350;-74
2022/06/12 11:46:26;;;;;;;2.38;0.50;;;;;;;53.04;8.01;93194.75;2048311;70;20165;-75
2022/06/12 11:49:10;;;;;;;0.60;0.45;;;;;;;51.08;7.05;93185.69;2048502;70;20201;-77
2022/06/12 11:51:41;;;;;;;1.00;0.40;;;;;;;49.70;7.42;93177.22;2048170;70;20169;-73
2022/06/12 11:54:27;;;;;;;0.30;0.30;;;;;;;52.15;8.45;93164.84;2048060;70;20194;-73
2022/06/12 11:57:12;;;;;;;2.42;0.50;;;;;;;53.51;7.22;93172.16;2048524;70;20197;-72
2022/06/12 11:59:57;;;;;;;2.85;0.50;;;;;;;53.08;7.34;93161.28;2045693;70;20139;-73
2022/06/12 12:02:44;;;;;;;0.35;0.35;;;;;;;50.27;9.05;93154.50;2048376;70;20162;-75
2022/06/12 12:05:25;;;;;;;0.95;0.40;;;;;;;49.29;7.48;93147.66;2048756;70;20153;-74
2022/06/12 12:08:19;;;;;;;0.40;0.40;;;;;;;45.19;9.89;93135.06;2048412;70;20147;-74
2022/06/12 12:10:54;;;;;;;0.75;0.43;;;;;;;43.43;10.84;93122.03;2047340;70;20166;-75
2022/06/12 12:13:31;;;;;;;2.10;0.40;;;;;;;42.65;11.95;93116.81;2046028;70;20228;-75
2022/06/12 12:16:03;;;;;;;0.50;0.50;;;;;;;41.61;11.18;93108.22;2048798;70;20174;-75